Time;durP1;ratioP1;P1;durP2;ratioP2;P2;SDS_P1;SDS_P2;PMS_P1;PMS_P2;Temp;Humidity;BMP_temperature;BMP_pressure;BME280_temperature;BME280_humidity;BME280_pressure;Samples;Min_cycle;Max_cycle;Signal;HPM_P1;HPM_P2
2023/02/19 00:01:25;;;;;;;23.60;12.35;;;5.10;99.90;;;;;;5094203;28;20376;-82
2023/02/19 00:03:52;;;;;;;6.95;4.63;;;5.10;99.90;;;;;;5094271;28;20027;-80
2023/02/19 00:06:19;;;;;;;17.08;9.18;;;5.10;99.90;;;;;;5095636;28;20024;-81
2023/02/19 00:08:45;;;;;;;6.05;4.38;;;5.10;99.90;;;;;;5095520;28;20440;-81
2023/02/19 00:11:16;;;;;;;4.32;3.28;;;5.10;99.90;;;;;;5095725;28;20041;-85
2023/02/19 00:13:44;;;;;;;7.93;4.13;;;5.00;99.90;;;;;;5094058;28;20415;-82
2023/02/19 00:16:15;;;;;;;5.43;3.55;;;5.00;99.90;;;;;;5095254;28;20016;-82
2023/02/19 00:18:42;;;;;;;24.30;13.63;;;4.90;99.90;;;;;;5093758;28;20031;-81
2023/02/19 00:21:08;;;;;;;5.82;3.15;;;5.00;99.90;;;;;;5095489;28;20473;-82
2023/02/19 00:23:34;;;;;;;4.78;2.95;;;5.00;99.90;;;;;;5094956;28;20020;-83
2023/02/19 00:26:05;;;;;;;5.72;4.03;;;4.90;99.90;;;;;;5095362;28;20021;-82
2023/02/19 00:28:31;;;;;;;3.13;2.67;;;4.90;99.90;;;;;;5094671;28;20052;-82
2023/02/19 00:31:14;;;;;;;4.30;3.53;;;4.90;99.90;;;;;;5094273;28;20012;-83
2023/02/19 00:33:39;;;;;;;4.90;3.78;;;4.90;99.90;;;;;;5094105;28;20076;-82
2023/02/19 00:36:05;;;;;;;5.72;3.60;;;4.90;99.90;;;;;;5095120;28;20065;-82
2023/02/19 00:38:35;;;;;;;4.40;3.40;;;4.90;99.90;;;;;;5093511;28;20020;-83
2023/02/19 00:41:17;;;;;;;5.95;3.72;;;4.80;99.90;;;;;;5093624;28;20021;-82
2023/02/19 00:43:51;;;;;;;4.32;2.83;;;4.80;99.90;;;;;;5093637;28;20031;-83
2023/02/19 00:46:19;;;;;;;4.93;3.85;;;4.80;99.90;;;;;;5094980;28;20051;-82
2023/02/19 00:48:45;;;;;;;3.88;3.58;;;4.80;99.90;;;;;;5093231;28;20028;-82
2023/02/19 00:51:11;;;;;;;4.57;3.30;;;4.80;99.90;;;;;;5092922;28;20031;-82
2023/02/19 00:53:40;;;;;;;5.47;3.85;;;4.80;99.90;;;;;;5094630;28;20024;-83
2023/02/19 00:56:07;;;;;;;5.78;3.47;;;4.80;99.90;;;;;;5094107;28;20020;-83
2023/02/19 00:58:36;;;;;;;7.00;4.53;;;4.80;99.90;;;;;;5092782;28;20024;-82
2023/02/19 01:01:02;;;;;;;8.73;5.07;;;4.80;99.90;;;;;;5094238;28;20027;-82
2023/02/19 01:03:28;;;;;;;9.73;4.90;;;4.80;99.90;;;;;;5093079;28;20086;-83
2023/02/19 01:05:54;;;;;;;10.05;6.60;;;4.70;99.90;;;;;;5094524;28;20024;-81
2023/02/19 01:08:20;;;;;;;6.28;4.60;;;4.80;99.90;;;;;;5092886;28;20052;-82
2023/02/19 01:10:46;;;;;;;7.22;4.28;;;4.80;99.90;;;;;;5094466;28;20073;-82
2023/02/19 01:13:12;;;;;;;6.45;4.47;;;4.80;99.90;;;;;;5093058;28;20028;-82
2023/02/19 01:15:37;;;;;;;9.82;6.80;;;4.80;99.90;;;;;;5094253;28;20024;-81
2023/02/19 01:18:03;;;;;;;7.10;4.40;;;4.70;99.90;;;;;;5092930;28;20031;-82
2023/02/19 01:20:29;;;;;;;6.57;4.57;;;4.70;99.90;;;;;;5094195;28;20024;-82
2023/02/19 01:22:55;;;;;;;9.07;5.40;;;4.70;99.90;;;;;;5093090;28;20020;-81
2023/02/19 01:25:21;;;;;;;9.00;4.82;;;4.70;99.90;;;;;;5092790;28;20131;-81
2023/02/19 01:27:46;;;;;;;7.80;5.93;;;4.70;99.90;;;;;;5092729;28;20094;-81
2023/02/19 01:30:12;;;;;;;7.95;5.70;;;4.70;99.90;;;;;;5094317;28;20420;-82
2023/02/19 01:32:38;;;;;;;12.25;6.63;;;4.70;99.90;;;;;;5094283;28;20017;-82
2023/02/19 01:35:04;;;;;;;13.02;7.60;;;4.80;99.90;;;;;;5094424;28;20078;-82
2023/02/19 01:37:30;;;;;;;8.45;6.35;;;4.70;99.90;;;;;;5092515;28;20016;-82
2023/02/19 01:39:55;;;;;;;7.10;5.57;;;4.70;99.90;;;;;;5092177;28;20099;-81
2023/02/19 01:42:21;;;;;;;7.20;5.25;;;4.70;99.90;;;;;;5094071;28;20020;-81
2023/02/19 01:44:47;;;;;;;7.22;3.92;;;4.70;99.90;;;;;;5093917;28;20103;-82
2023/02/19 01:47:18;;;;;;;6.90;4.20;;;4.70;99.90;;;;;;5093463;28;20074;-81
2023/02/19 01:49:49;;;;;;;4.15;3.25;;;4.60;99.90;;;;;;5093534;28;20055;-81
2023/02/19 01:52:21;;;;;;;6.05;3.67;;;4.60;99.90;;;;;;5092838;28;20054;-81
2023/02/19 01:54:48;;;;;;;6.55;3.80;;;4.60;99.90;;;;;;5092094;28;20020;-81
2023/02/19 01:57:24;;;;;;;5.40;3.80;;;4.60;99.90;;;;;;5093493;28;20089;-83
2023/02/19 01:59:54;;;;;;;7.90;4.28;;;4.70;99.90;;;;;;5092397;28;20032;-81
2023/02/19 02:02:20;;;;;;;5.68;3.80;;;4.70;99.90;;;;;;5093350;28;20023;-82
2023/02/19 02:04:47;;;;;;;5.18;3.28;;;4.70;99.90;;;;;;5091243;28;20107;-82
2023/02/19 02:12:41;;;;;;;5.10;3.83;;;4.70;99.90;;;;;;5093366;28;20583;-82
2023/02/19 02:15:08;;;;;;;5.70;3.95;;;4.70;99.90;;;;;;5092300;28;20214;-82
2023/02/19 02:17:46;;;;;;;3.65;3.33;;;4.70;99.90;;;;;;5093000;28;20023;-82
2023/02/19 02:20:14;;;;;;;3.58;3.28;;;4.70;99.90;;;;;;5093196;28;20038;-82
2023/02/19 02:22:46;;;;;;;6.18;4.10;;;4.60;99.90;;;;;;5093326;28;20058;-81
2023/02/19 02:25:17;;;;;;;3.90;3.50;;;4.60;99.90;;;;;;5093347;28;20028;-81
2023/02/19 02:27:59;;;;;;;4.85;3.78;;;4.60;99.90;;;;;;5091559;28;20117;-82
2023/02/19 02:30:36;;;;;;;4.80;3.67;;;4.60;99.90;;;;;;5093369;28;20044;-82
2023/02/19 02:33:30;;;;;;;4.30;3.85;;;4.60;99.90;;;;;;5091953;28;20024;-82
2023/02/19 02:36:07;;;;;;;5.93;4.25;;;4.60;99.90;;;;;;5091444;28;20035;-82
2023/02/19 02:38:37;;;;;;;5.43;4.03;;;4.60;99.90;;;;;;5092757;28;20472;-82
2023/02/19 02:41:03;;;;;;;5.55;4.45;;;4.60;99.90;;;;;;5091519;28;20038;-82
2023/02/19 02:43:29;;;;;;;5.93;4.78;;;4.60;99.90;;;;;;5093032;28;20382;-82
2023/02/19 02:45:55;;;;;;;7.75;5.30;;;4.60;99.90;;;;;;5091935;28;20020;-82
2023/02/19 02:48:32;;;;;;;6.30;5.38;;;4.60;99.90;;;;;;5108586;28;20024;-82
2023/02/19 02:51:12;;;;;;;8.38;6.00;;;4.60;99.90;;;;;;5092676;28;20453;-82
2023/02/19 02:56:28;;;;;;;8.13;6.22;;;4.60;99.90;;;;;;5092617;28;20036;-82
2023/02/19 02:58:57;;;;;;;10.63;6.43;;;4.60;99.90;;;;;;5092798;28;20060;-81
2023/02/19 03:04:20;;;;;;;10.23;6.55;;;4.50;99.90;;;;;;5093064;28;20091;-83
2023/02/19 03:06:48;;;;;;;9.70;6.45;;;4.50;99.90;;;;;;5091533;28;20058;-83
2023/02/19 03:09:28;;;;;;;10.88;6.63;;;4.50;99.90;;;;;;5091380;28;20040;-83
2023/02/19 03:20:47;;;;;;;9.75;6.68;;;4.50;99.90;;;;;;5096915;28;20031;-83
2023/02/19 03:23:16;;;;;;;8.35;6.30;;;4.50;99.90;;;;;;5094852;28;20366;-82
2023/02/19 03:31:18;;;;;;;9.93;6.97;;;4.50;99.90;;;;;;5096602;28;20086;-82
2023/02/19 03:33:50;;;;;;;9.70;7.55;;;4.50;99.90;;;;;;5096291;28;20055;-81
2023/02/19 03:36:17;;;;;;;9.90;7.45;;;4.50;99.90;;;;;;5095202;28;20024;-81
2023/02/19 03:38:56;;;;;;;13.30;8.90;;;4.50;99.90;;;;;;5094942;28;20028;-82
2023/02/19 03:41:43;;;;;;;14.20;9.30;;;4.60;99.90;;;;;;5094866;28;20024;-81
2023/02/19 03:44:27;;;;;;;14.77;9.85;;;4.60;99.90;;;;;;5096153;28;20397;-81
2023/02/19 03:47:09;;;;;;;12.90;9.25;;;4.60;99.90;;;;;;5095094;28;20182;-81
2023/02/19 03:49:44;;;;;;;14.02;9.32;;;4.60;99.90;;;;;;5095114;28;20031;-81
2023/02/19 03:52:21;;;;;;;12.38;9.20;;;4.60;99.90;;;;;;5094594;28;20047;-81
2023/02/19 03:54:56;;;;;;;16.88;10.23;;;4.60;99.90;;;;;;5096021;28;20020;-81
2023/02/19 03:57:50;;;;;;;12.77;8.73;;;4.50;99.90;;;;;;5094343;28;20416;-81
2023/02/19 04:00:29;;;;;;;13.63;8.30;;;4.50;99.90;;;;;;5095787;28;20048;-80
2023/02/19 04:03:24;;;;;;;24.27;12.45;;;4.60;99.90;;;;;;5096162;28;20028;-80
2023/02/19 04:05:57;;;;;;;21.13;11.13;;;4.60;99.90;;;;;;5095636;28;20431;-80
2023/02/19 04:08:24;;;;;;;24.98;11.90;;;4.60;99.90;;;;;;5094116;28;20024;-83
2023/02/19 04:10:52;;;;;;;65.93;21.23;;;4.60;99.90;;;;;;5096004;28;20028;-84
2023/02/19 04:13:26;;;;;;;447.30;176.13;;;4.60;99.90;;;;;;5095584;28;20055;-84
2023/02/19 04:15:55;;;;;;;696.63;311.10;;;4.60;99.90;;;;;;5095378;28;20028;-83
2023/02/19 04:18:28;;;;;;;699.05;296.42;;;4.60;99.90;;;;;;5095766;28;20024;-84
2023/02/19 04:20:55;;;;;;;164.10;48.08;;;4.60;99.90;;;;;;5094261;28;20077;-83
2023/02/19 04:23:26;;;;;;;70.50;22.40;;;4.60;99.90;;;;;;5094033;28;20052;-84
2023/02/19 04:25:57;;;;;;;47.80;17.45;;;4.60;99.90;;;;;;5095520;28;20030;-82
2023/02/19 04:28:23;;;;;;;159.35;62.72;;;4.60;99.90;;;;;;5094854;28;20485;-84
2023/02/19 04:30:49;;;;;;;116.28;39.58;;;4.60;99.90;;;;;;5095212;28;20119;-84
2023/02/19 04:33:14;;;;;;;38.00;13.45;;;4.60;99.90;;;;;;5094883;28;20150;-84
2023/02/19 04:35:40;;;;;;;33.10;12.65;;;4.60;99.90;;;;;;5095179;28;20016;-83
2023/02/19 04:38:06;;;;;;;29.15;11.30;;;4.60;99.90;;;;;;5094811;28;20058;-81
2023/02/19 04:40:32;;;;;;;34.35;14.13;;;4.60;99.90;;;;;;5094536;28;20028;-82
2023/02/19 04:42:57;;;;;;;194.13;67.38;;;4.60;99.90;;;;;;5093124;28;20031;-82
2023/02/19 04:45:23;;;;;;;51.17;17.85;;;4.60;99.90;;;;;;5094483;28;20477;-83
2023/02/19 04:47:49;;;;;;;42.75;14.18;;;4.60;99.90;;;;;;5094477;28;20066;-81
2023/02/19 04:50:14;;;;;;;40.97;14.07;;;4.60;99.90;;;;;;5094331;28;20086;-81
2023/02/19 04:52:40;;;;;;;49.13;21.00;;;4.60;99.90;;;;;;5094591;28;20023;-81
2023/02/19 04:55:08;;;;;;;34.55;12.07;;;4.60;99.90;;;;;;5094655;28;20029;-81
2023/02/19 04:57:34;;;;;;;33.50;8.70;;;4.60;99.90;;;;;;5094921;28;20028;-82
2023/02/19 05:00:00;;;;;;;25.08;9.00;;;4.60;99.90;;;;;;5093373;28;20077;-82
2023/02/19 05:02:26;;;;;;;51.38;17.40;;;4.60;99.90;;;;;;5093247;28;20027;-82
2023/02/19 05:04:52;;;;;;;68.80;21.58;;;4.60;99.90;;;;;;5094524;28;20099;-85
2023/02/19 05:07:17;;;;;;;38.60;11.02;;;4.60;99.90;;;;;;5093910;28;20074;-85
2023/02/19 05:09:43;;;;;;;19.45;7.72;;;4.50;99.90;;;;;;5094261;28;20040;-84
2023/02/19 05:12:09;;;;;;;48.22;14.32;;;4.50;99.90;;;;;;5094173;28;20051;-85
2023/02/19 05:14:34;;;;;;;121.32;41.33;;;4.50;99.90;;;;;;5094218;28;20024;-85
2023/02/19 05:17:00;;;;;;;142.73;35.83;;;4.50;99.90;;;;;;5092917;28;20028;-85
2023/02/19 05:19:26;;;;;;;41.50;13.35;;;4.50;99.90;;;;;;5094280;28;20138;-84
2023/02/19 05:21:52;;;;;;;48.25;13.75;;;4.50;99.90;;;;;;5092797;28;20477;-84
2023/02/19 05:24:18;;;;;;;107.18;31.05;;;4.50;99.90;;;;;;5093145;28;20077;-84
2023/02/19 05:26:44;;;;;;;25.33;8.48;;;4.50;99.90;;;;;;5093072;28;20030;-85
2023/02/19 05:29:10;;;;;;;183.98;62.25;;;4.40;99.90;;;;;;5093830;28;20459;-85
2023/02/19 05:31:36;;;;;;;50.03;16.83;;;4.50;99.90;;;;;;5094169;28;20031;-85
2023/02/19 05:34:02;;;;;;;18.83;8.70;;;4.40;99.90;;;;;;5092509;28;20103;-84
2023/02/19 05:36:27;;;;;;;81.15;21.90;;;4.40;99.90;;;;;;5094104;28;20023;-85
2023/02/19 05:38:55;;;;;;;26.65;10.43;;;4.40;99.90;;;;;;5093670;28;20028;-85
2023/02/19 05:41:24;;;;;;;77.95;24.02;;;4.40;99.90;;;;;;5091489;28;20020;-85
2023/02/19 05:43:50;;;;;;;62.90;20.25;;;4.40;99.90;;;;;;5093808;28;20020;-83
2023/02/19 05:46:18;;;;;;;64.50;20.83;;;4.40;99.90;;;;;;5092338;28;20550;-82
2023/02/19 05:48:45;;;;;;;15.02;7.03;;;4.40;99.90;;;;;;5109514;28;20023;-82
2023/02/19 05:51:13;;;;;;;30.45;12.63;;;4.40;99.90;;;;;;5093220;28;20016;-82
2023/02/19 05:53:39;;;;;;;26.10;11.80;;;4.40;99.90;;;;;;5092183;28;20031;-85
2023/02/19 05:56:25;;;;;;;50.40;17.80;;;4.30;99.90;;;;;;5093750;28;20020;-82
2023/02/19 05:58:51;;;;;;;81.97;27.20;;;4.40;99.90;;;;;;5093536;28;20058;-82
2023/02/19 06:01:19;;;;;;;39.35;15.80;;;4.40;99.90;;;;;;5092262;28;20055;-83
2023/02/19 06:03:45;;;;;;;47.97;17.88;;;4.40;99.90;;;;;;5092104;28;20382;-82
2023/02/19 06:06:15;;;;;;;87.07;30.90;;;4.40;99.90;;;;;;5092326;28;20024;-83
2023/02/19 06:08:41;;;;;;;72.80;24.45;;;4.40;99.90;;;;;;5091997;28;20024;-83
2023/02/19 06:11:07;;;;;;;47.70;17.95;;;4.40;99.90;;;;;;5093363;28;20078;-82
2023/02/19 06:13:33;;;;;;;28.88;12.95;;;4.40;99.90;;;;;;5091810;28;20111;-82
2023/02/19 06:15:59;;;;;;;71.68;25.02;;;4.40;99.90;;;;;;5092422;28;20069;-82
2023/02/19 06:18:24;;;;;;;63.75;23.70;;;4.40;99.90;;;;;;5092028;28;20016;-81
2023/02/19 06:20:50;;;;;;;58.83;22.65;;;4.40;99.90;;;;;;5092039;28;20157;-84
2023/02/19 06:23:16;;;;;;;72.68;27.35;;;4.50;99.90;;;;;;5092935;28;20023;-82
2023/02/19 06:25:41;;;;;;;38.35;16.60;;;4.40;99.90;;;;;;5090681;28;20051;-81
2023/02/19 06:28:09;;;;;;;46.03;17.23;;;4.50;99.90;;;;;;5092265;28;20052;-82
2023/02/19 06:30:35;;;;;;;28.92;12.73;;;4.50;99.90;;;;;;5092731;28;20032;-82
2023/02/19 06:33:01;;;;;;;37.53;15.52;;;4.50;99.90;;;;;;5091686;28;20477;-81
2023/02/19 06:35:27;;;;;;;48.65;19.40;;;4.50;99.90;;;;;;5091032;28;20020;-82
2023/02/19 06:37:52;;;;;;;18.67;9.10;;;4.50;99.90;;;;;;5091485;28;20012;-82
2023/02/19 06:40:18;;;;;;;31.70;14.23;;;4.50;99.90;;;;;;5092609;28;20055;-81
2023/02/19 06:42:44;;;;;;;35.60;14.10;;;4.50;99.90;;;;;;5092063;28;20020;-83
2023/02/19 06:45:10;;;;;;;35.53;14.48;;;4.50;99.90;;;;;;5091409;28;20028;-84
2023/02/19 06:47:35;;;;;;;37.67;16.10;;;4.50;99.90;;;;;;5093076;28;20028;-87
2023/02/19 06:50:01;;;;;;;40.05;16.45;;;4.50;99.90;;;;;;5090959;28;20032;-85
2023/02/19 06:52:27;;;;;;;34.03;14.38;;;4.50;99.90;;;;;;5095507;28;20070;-82
2023/02/19 06:54:53;;;;;;;23.98;11.73;;;4.60;99.90;;;;;;5096571;28;20051;-80
2023/02/19 06:57:19;;;;;;;50.13;21.75;;;4.50;99.90;;;;;;5096555;28;20065;-82
2023/02/19 06:59:45;;;;;;;38.10;17.65;;;4.60;99.90;;;;;;5097011;28;20468;-85
2023/02/19 07:02:11;;;;;;;26.38;13.25;;;4.60;99.90;;;;;;5095205;28;20072;-82
2023/02/19 07:04:37;;;;;;;53.85;23.10;;;4.70;99.90;;;;;;5096915;28;20373;-83
2023/02/19 07:07:03;;;;;;;40.35;17.73;;;4.70;99.90;;;;;;5096679;28;20038;-83
2023/02/19 07:09:29;;;;;;;50.08;20.92;;;4.70;99.90;;;;;;5096032;28;20036;-82
2023/02/19 07:11:55;;;;;;;34.80;15.70;;;4.80;99.90;;;;;;5095093;28;20016;-85
2023/02/19 07:14:22;;;;;;;37.47;16.45;;;4.80;99.90;;;;;;5096029;28;20028;-84
2023/02/19 07:16:48;;;;;;;40.58;18.60;;;4.80;99.90;;;;;;5096510;28;20028;-84
2023/02/19 07:19:14;;;;;;;32.38;15.85;;;4.80;99.90;;;;;;5094944;28;20035;-83
2023/02/19 07:21:41;;;;;;;25.13;13.80;;;4.90;99.90;;;;;;5094887;28;20381;-84
2023/02/19 07:24:08;;;;;;;33.97;16.58;;;4.90;99.90;;;;;;5093826;28;20099;-84
2023/02/19 07:26:34;;;;;;;47.00;18.25;;;4.90;99.90;;;;;;5092822;28;20016;-82
2023/02/19 07:29:01;;;;;;;41.10;19.05;;;5.00;99.90;;;;;;5093825;28;20036;-83
2023/02/19 07:31:27;;;;;;;28.63;14.02;;;5.00;99.90;;;;;;5094692;28;20047;-85
2023/02/19 07:33:53;;;;;;;38.42;18.05;;;5.10;99.90;;;;;;5092026;28;20025;-81
2023/02/19 07:36:20;;;;;;;95.18;37.08;;;5.10;99.90;;;;;;5095026;28;20023;-82
2023/02/19 07:38:46;;;;;;;87.95;32.15;;;5.10;99.90;;;;;;5093366;28;20035;-84
2023/02/19 07:41:12;;;;;;;301.63;106.80;;;5.20;99.90;;;;;;5093854;28;20016;-83
2023/02/19 07:43:38;;;;;;;150.57;59.75;;;5.20;99.90;;;;;;5094199;28;20027;-83
2023/02/19 07:46:06;;;;;;;93.10;38.05;;;5.20;99.90;;;;;;5093116;28;20027;-83
2023/02/19 07:48:33;;;;;;;87.68;37.38;;;5.30;99.90;;;;;;5091246;28;20028;-82
2023/02/19 07:50:59;;;;;;;78.13;33.67;;;5.30;99.90;;;;;;5093142;28;20032;-82
2023/02/19 07:53:27;;;;;;;32.00;16.23;;;5.20;99.90;;;;;;5093924;28;20031;-85
2023/02/19 07:55:57;;;;;;;153.02;62.08;;;5.30;99.90;;;;;;5090805;28;20020;-84
2023/02/19 07:58:23;;;;;;;35.83;18.50;;;5.30;99.90;;;;;;5093860;28;20020;-83
2023/02/19 08:00:48;;;;;;;57.67;26.48;;;5.30;99.90;;;;;;5093398;28;20393;-82
2023/02/19 08:03:15;;;;;;;25.40;13.20;;;5.30;99.90;;;;;;5094436;28;20033;-84
2023/02/19 08:05:41;;;;;;;31.25;16.42;;;5.30;99.90;;;;;;5093687;28;20036;-84
2023/02/19 08:08:09;;;;;;;38.60;20.10;;;5.40;99.90;;;;;;5092249;28;20013;-85
2023/02/19 08:13:22;;;;;;;20.02;11.82;;;5.40;99.90;;;;;;5094180;28;20096;-85
2023/02/19 08:15:52;;;;;;;22.95;13.43;;;5.50;99.90;;;;;;5091657;28;20016;-82
2023/02/19 08:18:23;;;;;;;14.23;10.23;;;5.50;99.90;;;;;;5093292;28;20031;-83
2023/02/19 08:20:49;;;;;;;22.65;11.18;;;5.60;99.90;;;;;;5095210;28;20473;-81
2023/02/19 08:23:15;;;;;;;13.77;8.10;;;5.70;99.90;;;;;;5094219;28;20031;-82
2023/02/19 08:25:41;;;;;;;44.78;18.25;;;5.70;99.90;;;;;;5093451;28;20044;-82
2023/02/19 08:28:09;;;;;;;54.50;20.20;;;5.70;99.90;;;;;;5093128;28;20482;-82
2023/02/19 08:30:37;;;;;;;21.13;10.43;;;5.80;99.90;;;;;;5094452;28;20074;-82
2023/02/19 08:33:03;;;;;;;42.75;15.95;;;5.60;99.90;;;;;;5092733;28;20428;-82
2023/02/19 08:35:29;;;;;;;34.65;14.55;;;5.60;99.90;;;;;;5096827;28;20086;-84
2023/02/19 08:37:56;;;;;;;22.77;11.70;;;5.50;99.90;;;;;;5093280;28;20021;-83
2023/02/19 08:40:23;;;;;;;3.90;3.08;;;5.50;99.90;;;;;;5090417;28;20115;-81
2023/02/19 08:42:49;;;;;;;5.70;3.60;;;5.30;99.90;;;;;;5092929;28;20063;-80
2023/02/19 08:45:15;;;;;;;19.38;9.45;;;5.20;99.90;;;;;;5093512;28;20496;-81
2023/02/19 08:47:40;;;;;;;17.05;8.43;;;5.10;99.90;;;;;;5094151;28;20073;-80
2023/02/19 08:50:07;;;;;;;74.60;25.63;;;5.00;99.90;;;;;;5093071;28;20443;-81
2023/02/19 08:52:33;;;;;;;311.83;101.13;;;5.00;99.90;;;;;;5093073;28;20091;-80
2023/02/19 08:54:58;;;;;;;76.82;29.88;;;5.00;99.90;;;;;;5092914;28;20054;-81
2023/02/19 08:57:25;;;;;;;48.03;19.40;;;5.00;99.90;;;;;;5110233;28;20028;-81
2023/02/19 08:59:51;;;;;;;48.03;19.02;;;5.00;99.90;;;;;;5094363;28;20095;-81
2023/02/19 09:02:17;;;;;;;38.13;15.63;;;5.00;99.90;;;;;;5093165;28;20465;-82
2023/02/19 09:04:43;;;;;;;67.85;29.35;;;5.00;99.90;;;;;;5094361;28;20028;-80
2023/02/19 09:07:11;;;;;;;193.52;67.28;;;5.00;99.90;;;;;;5094726;28;20020;-79
2023/02/19 09:09:37;;;;;;;386.15;139.98;;;4.90;99.90;;;;;;5093303;28;20121;-80
2023/02/19 09:12:07;;;;;;;88.75;39.05;;;4.90;99.90;;;;;;5094127;28;20469;-80
2023/02/19 09:14:34;;;;;;;67.47;27.45;;;4.90;99.90;;;;;;5093908;28;20043;-82
2023/02/19 09:17:00;;;;;;;237.82;84.32;;;5.00;99.90;;;;;;5091535;28;20567;-81
2023/02/19 09:19:26;;;;;;;68.43;28.10;;;5.00;99.90;;;;;;5092940;28;20036;-81
2023/02/19 09:21:53;;;;;;;97.47;36.00;;;5.00;99.90;;;;;;5091724;28;20085;-80
2023/02/19 09:24:19;;;;;;;167.55;56.10;;;5.00;99.90;;;;;;5091019;28;20016;-81
2023/02/19 09:26:47;;;;;;;107.05;39.45;;;5.00;99.90;;;;;;5093263;28;20031;-81
2023/02/19 09:29:13;;;;;;;83.47;28.85;;;5.00;99.90;;;;;;5089193;28;20059;-81
2023/02/19 09:31:39;;;;;;;60.13;23.35;;;5.00;99.90;;;;;;5073195;28;20024;-81
2023/02/19 09:34:05;;;;;;;161.82;60.00;;;5.10;99.90;;;;;;5076008;28;20023;-81
2023/02/19 09:36:32;;;;;;;48.40;17.77;;;5.00;99.90;;;;;;5093565;28;20477;-80
2023/02/19 09:38:59;;;;;;;87.15;32.85;;;5.00;99.90;;;;;;5093868;28;20027;-81
2023/02/19 09:41:34;;;;;;;108.55;40.10;;;5.10;99.90;;;;;;5093938;28;20076;-80
2023/02/19 09:44:02;;;;;;;54.58;25.15;;;5.10;99.90;;;;;;5091862;28;20024;-80
2023/02/19 09:46:49;;;;;;;99.78;36.15;;;4.90;99.90;;;;;;5093299;28;20050;-80
2023/02/19 09:49:25;;;;;;;10.95;7.80;;;4.80;99.90;;;;;;5091914;28;20036;-81
2023/02/19 09:51:58;;;;;;;24.13;12.00;;;4.50;99.90;;;;;;5093266;28;20024;-81
2023/02/19 09:54:27;;;;;;;145.07;60.80;;;4.40;99.90;;;;;;5092889;28;20427;-81
2023/02/19 09:56:55;;;;;;;30.65;14.30;;;4.30;99.90;;;;;;5091432;28;20424;-81
2023/02/19 09:59:24;;;;;;;48.05;17.33;;;4.30;99.90;;;;;;5092940;28;20036;-81
2023/02/19 10:02:02;;;;;;;40.65;18.85;;;4.20;99.90;;;;;;5091928;28;20150;-81
2023/02/19 10:04:28;;;;;;;4.78;3.30;;;4.20;99.90;;;;;;5091890;28;20465;-80
2023/02/19 10:06:59;;;;;;;107.50;44.05;;;3.90;99.90;;;;;;5093251;28;20031;-81
2023/02/19 10:09:27;;;;;;;186.25;78.03;;;3.70;99.90;;;;;;5092026;28;20036;-81
2023/02/19 10:11:54;;;;;;;40.83;17.77;;;3.70;99.90;;;;;;5092991;28;20031;-81
2023/02/19 10:14:39;;;;;;;6.57;4.57;;;3.50;99.90;;;;;;5092901;28;20461;-81
2023/02/19 10:17:10;;;;;;;22.67;11.05;;;3.30;99.90;;;;;;5093450;28;20381;-80
2023/02/19 10:19:35;;;;;;;14.77;8.35;;;3.20;99.90;;;;;;5108343;28;20031;-81
2023/02/19 10:22:02;;;;;;;44.58;21.27;;;3.20;99.90;;;;;;5092777;28;20342;-81
2023/02/19 10:24:29;;;;;;;52.63;28.10;;;3.20;99.90;;;;;;5091544;28;20012;-81
2023/02/19 10:26:55;;;;;;;13.25;8.15;;;3.20;99.90;;;;;;5091318;28;20043;-80
2023/02/19 10:29:23;;;;;;;57.28;30.83;;;3.20;99.90;;;;;;5090935;28;20489;-80
2023/02/19 10:32:09;;;;;;;173.40;79.43;;;3.20;99.90;;;;;;5093020;28;20540;-80
2023/02/19 10:34:34;;;;;;;56.38;30.95;;;3.30;99.90;;;;;;5092445;28;20020;-80
2023/02/19 10:37:00;;;;;;;61.72;34.95;;;3.10;99.90;;;;;;5092858;28;20012;-81
2023/02/19 10:39:45;;;;;;;26.80;15.05;;;3.20;99.90;;;;;;5092774;28;20020;-80
2023/02/19 10:42:20;;;;;;;18.80;11.48;;;3.10;99.90;;;;;;5093240;28;20089;-81
2023/02/19 10:44:51;;;;;;;46.50;18.08;;;3.20;99.90;;;;;;5091880;28;20044;-80
2023/02/19 10:47:21;;;;;;;35.88;17.55;;;3.20;99.90;;;;;;5092961;28;20031;-80
2023/02/19 10:49:48;;;;;;;74.90;41.28;;;3.20;99.90;;;;;;5097495;28;20039;-80
2023/02/19 10:52:25;;;;;;;8.10;5.28;;;3.30;99.90;;;;;;5092538;28;20571;-80
2023/02/19 10:55:25;;;;;;;31.75;16.75;;;3.30;99.90;;;;;;5092363;28;20050;-80
2023/02/19 10:57:51;;;;;;;24.50;13.50;;;3.20;99.90;;;;;;5085902;28;20085;-81
2023/02/19 11:00:25;;;;;;;32.40;19.35;;;3.10;99.90;;;;;;5092281;28;20028;-81
2023/02/19 11:03:12;;;;;;;117.70;47.60;;;3.20;99.90;;;;;;5091803;28;20099;-81
2023/02/19 11:06:01;;;;;;;58.70;28.17;;;3.20;99.90;;;;;;5107696;28;20030;-82
2023/02/19 11:08:27;;;;;;;84.55;41.78;;;3.20;99.90;;;;;;5092707;28;20052;-82
2023/02/19 11:10:53;;;;;;;25.65;14.88;;;3.20;99.90;;;;;;5092328;28;20120;-82
2023/02/19 11:13:31;;;;;;;48.05;24.30;;;3.10;99.90;;;;;;5092456;28;20450;-82
2023/02/19 11:15:58;;;;;;;56.00;27.13;;;3.10;99.90;;;;;;5092185;28;20032;-82
2023/02/19 11:18:30;;;;;;;43.67;22.55;;;3.10;99.90;;;;;;5108277;28;20024;-82
2023/02/19 11:21:01;;;;;;;79.37;35.53;;;3.00;99.90;;;;;;5091109;28;20101;-82
2023/02/19 11:23:28;;;;;;;156.63;66.72;;;2.90;99.90;;;;;;5091384;28;20336;-82
2023/02/19 11:25:57;;;;;;;142.30;61.13;;;2.90;99.90;;;;;;5090988;28;20024;-82
2023/02/19 11:28:31;;;;;;;47.67;23.88;;;2.90;99.90;;;;;;5092147;28;20473;-83
2023/02/19 11:31:19;;;;;;;57.08;25.00;;;3.00;99.90;;;;;;5091886;28;20036;-81
2023/02/19 11:33:55;;;;;;;214.90;120.38;;;2.90;99.90;;;;;;5090844;28;20020;-82
2023/02/19 11:36:24;;;;;;;266.65;112.95;;;2.90;99.90;;;;;;5092385;28;20047;-81
2023/02/19 11:38:50;;;;;;;101.65;37.63;;;2.80;99.90;;;;;;5092614;28;20429;-82
2023/02/19 11:41:49;;;;;;;81.30;36.67;;;2.80;99.90;;;;;;5094904;28;20028;-81
2023/02/19 11:44:48;;;;;;;223.60;90.13;;;2.80;99.90;;;;;;5094207;28;20032;-82
2023/02/19 11:47:25;;;;;;;193.35;81.88;;;2.90;99.90;;;;;;5072342;28;20032;-81
2023/02/19 11:49:51;;;;;;;286.45;108.10;;;2.90;99.90;;;;;;5076442;28;20548;-82
2023/02/19 11:52:41;;;;;;;309.23;133.63;;;3.00;99.90;;;;;;5092587;28;20020;-81
2023/02/19 11:55:32;;;;;;;467.48;209.68;;;3.00;99.90;;;;;;5092309;28;20111;-81
2023/02/19 11:58:35;;;;;;;321.67;117.85;;;2.90;99.90;;;;;;5093948;28;20024;-82
2023/02/19 12:01:20;;;;;;;287.58;97.88;;;3.00;99.90;;;;;;5092325;28;20508;-81
2023/02/19 12:04:07;;;;;;;521.47;230.95;;;3.00;99.90;;;;;;5093751;28;20036;-81
2023/02/19 12:07:09;;;;;;;257.48;92.70;;;3.10;99.90;;;;;;5095237;28;20032;-82
2023/02/19 12:10:11;;;;;;;235.15;80.32;;;3.10;99.90;;;;;;5094010;28;20146;-81
2023/02/19 12:12:40;;;;;;;353.45;128.15;;;3.10;99.90;;;;;;5074195;28;20025;-80
2023/02/19 12:15:27;;;;;;;248.35;96.15;;;3.00;99.90;;;;;;5078867;28;20077;-80
2023/02/19 12:17:56;;;;;;;194.20;76.07;;;3.00;99.90;;;;;;5095445;28;20020;-81
2023/02/19 12:20:41;;;;;;;145.93;50.50;;;3.00;99.90;;;;;;5095311;28;20047;-80
2023/02/19 12:23:31;;;;;;;137.20;51.10;;;3.00;99.90;;;;;;5095517;28;20020;-80
2023/02/19 12:26:34;;;;;;;220.40;80.95;;;2.90;99.90;;;;;;5094982;28;20039;-80
2023/02/19 12:29:22;;;;;;;149.43;46.95;;;3.00;99.90;;;;;;5093847;28;20056;-80
2023/02/19 12:31:53;;;;;;;40.72;14.98;;;3.10;99.90;;;;;;5094968;28;20024;-80
2023/02/19 12:34:48;;;;;;;88.18;29.02;;;3.00;99.90;;;;;;5093617;28;20077;-80
2023/02/19 12:37:51;;;;;;;51.78;20.20;;;3.00;99.90;;;;;;5093985;28;20047;-80
2023/02/19 12:40:35;;;;;;;57.30;21.48;;;3.00;99.90;;;;;;5093423;28;20071;-80
2023/02/19 12:43:15;;;;;;;30.45;10.35;;;3.10;99.90;;;;;;5093626;28;20031;-80
2023/02/19 12:45:51;;;;;;;28.88;12.75;;;2.90;99.90;;;;;;5092794;28;20367;-80
2023/02/19 12:48:30;;;;;;;74.70;28.75;;;2.90;99.90;;;;;;5094762;28;20084;-80
2023/02/19 12:51:04;;;;;;;89.78;33.85;;;3.00;99.90;;;;;;5094265;28;20062;-80
2023/02/19 12:53:51;;;;;;;128.70;47.40;;;3.00;99.90;;;;;;5093513;28;20123;-80
2023/02/19 12:56:40;;;;;;;23.92;11.85;;;2.90;99.90;;;;;;5094618;28;20028;-79
2023/02/19 12:59:20;;;;;;;224.55;86.68;;;3.00;99.90;;;;;;5094883;28;20028;-79
2023/02/19 13:02:13;;;;;;;177.55;59.40;;;3.00;99.90;;;;;;5093352;28;20024;-81
2023/02/19 13:04:56;;;;;;;67.10;24.45;;;2.90;99.90;;;;;;5078188;28;20036;-80
2023/02/19 13:07:35;;;;;;;93.82;34.65;;;2.80;99.90;;;;;;5071737;28;20029;-80
2023/02/19 13:10:09;;;;;;;85.95;39.00;;;2.90;99.90;;;;;;5106112;28;20056;-80
2023/02/19 13:12:40;;;;;;;85.28;32.72;;;2.80;99.90;;;;;;5072358;28;20040;-80
2023/02/19 13:15:25;;;;;;;108.03;44.63;;;2.90;99.90;;;;;;5108929;28;20417;-81
2023/02/19 13:17:54;;;;;;;63.38;26.73;;;2.90;99.90;;;;;;5092402;28;20397;-80
2023/02/19 13:20:39;;;;;;;67.82;26.67;;;2.90;99.90;;;;;;5092140;28;20095;-79
2023/02/19 13:26:31;;;;;;;58.78;23.25;;;2.90;99.90;;;;;;5073377;28;20120;-80
2023/02/19 13:29:15;;;;;;;44.83;21.30;;;3.00;99.90;;;;;;5073342;28;20044;-80
2023/02/19 13:31:47;;;;;;;40.15;19.50;;;3.00;99.90;;;;;;5071876;28;20497;-80